Daley Dijks

Chief Scout - Cambuur
15 Oct 2028
Sunday
Process

Personality

Adaptability (17) Ambition (8) Controversy (8) Loyalty (13) Pressure (5) Professionalism (2) Sportsmanship (12) Temperament (14)

Profile

Coaching Style Democratic
License Continental B
Determination 4
Man Management 8
Motivating 9
Discipline 5
Job Satisfaction
100%
Fatigue
0%
Role Chief Scout
Wage 32.9K p/w
Contract 14.03.2030

Performance

Behaviour Good
Training Effectiveness
21%
Player Development
35%
Injury Prevention
55%
Tactical Implementation
20%

Recent Events

Attended a recruitment meeting now
Recommended a transfer target now
Recommended a transfer target now
Attended a recruitment meeting 7d ago
Recommended a transfer target 7d ago
Recommended a transfer target 7d ago
Recommended a transfer target 7d ago
Recommended a transfer target 7d ago

Currently Monitoring

64
Player Club Status Ability Confidence Watched Last Observed Latest Vote
Isaac Partey Sol de America Active 108 / 109 66% 1 01.01.2028 -
Samuel Asamoah Racing Active 104 / 110 66% 1 01.06.2027 Approve
Liel Abada Inter Miami CF Active 131 / 132 62% 1 01.06.2027 -
Max Svensson Corinthians Active 106 / 108 66% 1 01.01.2027 Approve
Pablo Fernández Leiria Active 110 / 110 67% 1 01.01.2027 Approve
Caio Vidal Deportivo Pereira Active 128 / 129 63% 1 01.01.2027 Approve
Enrique Lofolomo Zulte Waregem Active 111 / 102 40% 1 28.12.2026 -
Tyrhys Dolan Espanyol Active 124 / 147 40% 4 27.12.2026 -
Maksim Kireev KV Mechelen Active 108 / 135 40% 2 27.12.2026 -
Mardochée Nzita Charleroi Active 124 / 106 40% 2 26.12.2026 -
Tibe De Vlieger KAA Gent Active 108 / 117 40% 1 26.12.2026 -
Ilias Sebaoui Sint-Truiden Active 117 / 117 40% 3 23.12.2026 -
Taiga Hata Sint-Truiden Active 125 / 113 40% 2 23.12.2026 -
Bobby Clark Derby County Active 108 / 124 40% 1 19.12.2026 -
Juan Pablo Gallego Fehervar Active 112 / 123 40% 1 13.12.2026 -
Tyrese Campbell Sheffield United Active 143 / 128 40% 1 12.12.2026 -
Tristan Degreef Anderlecht Active 126 / 126 40% 6 11.12.2026 -
William Balikwisha OH Leuven Active 102 / 127 40% 2 11.12.2026 -
Marley Aké Zulte Waregem Active 120 / 129 40% 2 10.12.2026 -
Fredrik Hammar KV Mechelen Active 117 / 102 40% 1 10.12.2026 -
Eddie Nketiah Crystal Palace Active 143 / 137 40% 2 09.12.2026 -
Oswin Appollis Orlando Pirates Active 111 / 101 40% 1 09.12.2026 -
Tyler Goodrham Oxford United Active 133 / 124 40% 1 06.12.2026 -
Mitchel Bakker Modena Active 129 / 141 40% 4 04.12.2026 -
Daniel Kyerewaa Reading Active 128 / 122 40% 1 04.12.2026 -
Elliot Anderson Manchester City Active 142 / 157 40% 1 02.12.2026 -
Kyriani Sabbe Club Brugge Active 122 / 111 40% 2 30.11.2026 -
Yassine Khalifi Charleroi Active 108 / 116 40% 1 27.11.2026 -
Fiete Arp OB Active 140 / 133 40% 1 25.11.2026 -
Thomas Claes Zulte Waregem Active 105 / 118 40% 1 25.11.2026 -
Jorg Schreuders Groningen Active 120 / 137 40% 1 24.11.2026 -
Malick Mbaye Zulte Waregem Active 117 / 102 40% 3 15.11.2026 -
Thibaud Verlinden OH Leuven Active 124 / 127 40% 1 14.11.2026 -
Abdelkahar Kadri KAA Gent Active 112 / 123 40% 1 14.11.2026 -
Dylan Ourega Westerlo Active 116 / 129 40% 1 09.11.2026 -
Jadon Sancho Manchester United Active 162 / 135 40% 2 06.11.2026 -
Alex Luna Instituto Active 136 / 132 40% 1 05.11.2026 -
Tommy St. Jago KV Mechelen Active 123 / 113 40% 1 04.11.2026 -
Alejandro Piedrahita Deportivo Pereira Active 114 / 137 40% 1 04.11.2026 -
Jens Petter Hauge Bodo/Glimt Active 138 / 126 40% 1 03.11.2026 -
Adnane Abid Standard Liege Active 121 / 117 40% 1 02.11.2026 -
Scott Twine Bristol City Active 137 / 138 40% 1 02.11.2026 -
Nikolas Sattlberger Racing Genk Active 107 / 136 40% 1 31.10.2026 -
Timothy Tielemans Mouscron Active 111 / 113 40% 1 29.10.2026 -
Jan Virgili Club Brugge Active 123 / 130 40% 2 27.10.2026 -
Sylvester Jasper Standard Liege Active 103 / 126 40% 1 26.10.2026 -
Mohamed-Ali Cho Hull City Active 118 / 143 40% 1 21.10.2026 -
Jason Knight Bristol City Active 126 / 136 40% 1 21.10.2026 -
Dante Rigo Standard Liege Active 100 / 125 40% 1 20.10.2026 -
Łukasz Łakomy OH Leuven Active 116 / 108 40% 1 18.10.2026 -
Emi Rodriguez Leon Active 111 / 103 40% 1 18.10.2026 -
Martín Ojeda Orlando City Active 158 / 111 40% 1 14.10.2026 -
Pedro Vite Pumas UNAM Active 143 / 124 40% 1 14.10.2026 -
Talles Magno New York City Active 115 / 125 40% 1 13.10.2026 -
Marcus Edwards Burnley Active 150 / 140 40% 1 12.10.2026 -
Yaimar Medina Racing Genk Active 112 / 109 40% 1 11.10.2026 -
Omar Campos Cruz Azul Active 147 / 131 40% 1 10.10.2026 -
Antoine Colassin Charleroi Active 110 / 110 40% 1 09.10.2026 -
Sieben Dewaele Waasland-Beveren Active 100 / 104 40% 1 08.10.2026 -
Hugo Vetlesen Club Brugge Active 125 / 134 40% 1 07.10.2026 -
Jearl Margaritha Waasland-Beveren Active 91 / 101 40% 1 07.10.2026 -
Ibrahim Karamoko Standard Liege Active 124 / 112 40% 1 06.10.2026 -
Matisse Samoise KAA Gent Active 109 / 106 40% 1 05.10.2026 -
Djordje Mihailović Toronto FC Active 146 / 149 40% 1 05.10.2026 -